Time;durP1;ratioP1;P1;durP2;ratioP2;P2;SDS_P1;SDS_P2;PMS_P1;PMS_P2;Temp;Humidity;BMP_temperature;BMP_pressure;BME280_temperature;BME280_humidity;BME280_pressure;Samples;Min_cycle;Max_cycle;Signal;HPM_P1;HPM_P2
2022/01/16 00:04:07;;;;;;;0.70;0.70;;;;;;;;;;4991119;28;20206;-62
2022/01/16 00:06:33;;;;;;;0.70;0.70;;;;;;;;;;4990825;28;20402;-62
2022/01/16 00:08:59;;;;;;;0.60;0.60;;;;;;;;;;4992184;28;20182;-62
2022/01/16 00:11:27;;;;;;;0.52;0.52;;;;;;;;;;4991746;28;20789;-62
2022/01/16 00:13:53;;;;;;;0.60;0.60;;;;;;;;;;4991894;28;20228;-62
2022/01/16 00:16:19;;;;;;;0.60;0.60;;;;;;;;;;4991969;28;20176;-62
2022/01/16 00:18:54;;;;;;;0.50;0.50;;;;;;;;;;4991952;28;20649;-62
2022/01/16 00:21:23;;;;;;;0.50;0.50;;;;;;;;;;4991884;28;20200;-62
2022/01/16 00:23:49;;;;;;;0.60;0.60;;;;;;;;;;4990359;28;20210;-62
2022/01/16 00:26:16;;;;;;;0.50;0.50;;;;;;;;;;4991902;28;20174;-62
2022/01/16 00:28:42;;;;;;;0.60;0.60;;;;;;;;;;4991885;28;20233;-62
2022/01/16 00:31:08;;;;;;;0.60;0.60;;;;;;;;;;4991619;28;20166;-62
2022/01/16 00:33:39;;;;;;;0.60;0.60;;;;;;;;;;4991688;28;20182;-62
2022/01/16 00:36:05;;;;;;;0.60;0.60;;;;;;;;;;4991872;28;20189;-62
2022/01/16 00:38:31;;;;;;;0.60;0.60;;;;;;;;;;4991824;28;20193;-62
2022/01/16 00:40:57;;;;;;;0.60;0.60;;;;;;;;;;4991764;28;20170;-62
2022/01/16 00:43:23;;;;;;;0.60;0.60;;;;;;;;;;4992021;28;20461;-62
2022/01/16 00:45:49;;;;;;;0.60;0.60;;;;;;;;;;4991799;28;20445;-62
2022/01/16 00:48:15;;;;;;;0.70;0.70;;;;;;;;;;4991763;28;20423;-62
2022/01/16 00:50:41;;;;;;;0.60;0.60;;;;;;;;;;4991734;28;20401;-62
2022/01/16 00:53:08;;;;;;;0.50;0.50;;;;;;;;;;4991393;28;20426;-62
2022/01/16 00:55:34;;;;;;;0.60;0.60;;;;;;;;;;4991376;28;20197;-62
2022/01/16 00:58:00;;;;;;;0.60;0.60;;;;;;;;;;4991657;28;20175;-62
2022/01/16 01:00:27;;;;;;;0.60;0.60;;;;;;;;;;4991663;28;20179;-62
2022/01/16 01:02:54;;;;;;;0.60;0.60;;;;;;;;;;4991369;28;20265;-62
2022/01/16 01:05:20;;;;;;;0.52;0.52;;;;;;;;;;4991316;28;20214;-61
2022/01/16 01:07:46;;;;;;;0.60;0.60;;;;;;;;;;4991713;28;20530;-62
2022/01/16 01:10:13;;;;;;;0.70;0.70;;;;;;;;;;4991596;28;20186;-62
2022/01/16 01:12:53;;;;;;;0.70;0.70;;;;;;;;;;4991232;28;20433;-62
2022/01/16 01:15:20;;;;;;;0.50;0.50;;;;;;;;;;4995156;28;20221;-62
2022/01/16 01:17:47;;;;;;;0.65;0.65;;;;;;;;;;4995026;28;20181;-62
2022/01/16 01:20:16;;;;;;;0.57;0.57;;;;;;;;;;4995021;28;20170;-62
2022/01/16 01:22:42;;;;;;;0.60;0.60;;;;;;;;;;4994715;28;20202;-62
2022/01/16 01:25:11;;;;;;;0.55;0.55;;;;;;;;;;4994841;28;20221;-62
2022/01/16 01:27:37;;;;;;;0.60;0.60;;;;;;;;;;4994866;28;20170;-62
2022/01/16 01:30:07;;;;;;;0.55;0.55;;;;;;;;;;4994881;28;20217;-62
2022/01/16 01:32:37;;;;;;;0.60;0.60;;;;;;;;;;5026457;22;20237;-66
2022/01/16 01:35:04;;;;;;;0.60;0.60;;;;;;;;;;5015252;28;20281;-66
2022/01/16 01:37:30;;;;;;;0.60;0.60;;;;;;;;;;5014794;28;20180;-66
2022/01/16 01:39:56;;;;;;;0.60;0.60;;;;;;;;;;5014486;28;20217;-66
2022/01/16 01:42:30;;;;;;;0.60;0.60;;;;;;;;;;5014313;28;20425;-65
2022/01/16 01:53:13;;;;;;;0.80;0.80;;;;;;;;;;5014121;28;20577;-66
2022/01/16 01:55:40;;;;;;;0.60;0.60;;;;;;;;;;5014166;28;20181;-66
2022/01/16 01:58:06;;;;;;;0.60;0.60;;;;;;;;;;5014226;28;20201;-66
2022/01/16 02:00:32;;;;;;;0.70;0.70;;;;;;;;;;5014026;28;20673;-66
2022/01/16 02:05:43;;;;;;;0.60;0.60;;;;;;;;;;5013941;28;20423;-66
2022/01/16 02:08:10;;;;;;;0.60;0.60;;;;;;;;;;5013857;28;20724;-65
2022/01/16 02:10:37;;;;;;;0.70;0.70;;;;;;;;;;5013867;28;20178;-65
2022/01/16 02:13:06;;;;;;;0.60;0.60;;;;;;;;;;5012292;28;20569;-66
2022/01/16 02:31:37;;;;;;;0.70;0.70;;;;;;;;;;5013377;28;20181;-66
2022/01/16 02:36:50;;;;;;;0.60;0.60;;;;;;;;;;5013655;28;20368;-65
2022/01/16 02:39:17;;;;;;;0.60;0.60;;;;;;;;;;5013253;28;20264;-66
2022/01/16 02:41:44;;;;;;;0.60;0.60;;;;;;;;;;5012938;28;20181;-65
2022/01/16 02:44:28;;;;;;;0.60;0.60;;;;;;;;;;4995389;28;20902;-66
2022/01/16 02:46:58;;;;;;;0.60;0.60;;;;;;;;;;5013275;28;20629;-67
2022/01/16 02:49:25;;;;;;;0.60;0.60;;;;;;;;;;5013457;28;20204;-65
2022/01/16 02:51:53;;;;;;;0.60;0.60;;;;;;;;;;5013167;28;20604;-66
2022/01/16 02:54:20;;;;;;;0.60;0.60;;;;;;;;;;5012934;28;20252;-62
2022/01/16 02:56:48;;;;;;;0.63;0.63;;;;;;;;;;5013000;28;20192;-65
2022/01/16 02:59:14;;;;;;;0.60;0.60;;;;;;;;;;5012987;28;20176;-66
2022/01/16 03:01:40;;;;;;;0.60;0.60;;;;;;;;;;5012609;28;20200;-65
2022/01/16 03:04:07;;;;;;;0.60;0.60;;;;;;;;;;5012624;28;20213;-65
2022/01/16 03:06:33;;;;;;;0.60;0.60;;;;;;;;;;5013007;28;20178;-65
2022/01/16 03:08:59;;;;;;;0.50;0.50;;;;;;;;;;5012812;28;20185;-65
2022/01/16 03:11:35;;;;;;;0.60;0.60;;;;;;;;;;5012721;28;20170;-65
2022/01/16 03:14:05;;;;;;;0.60;0.60;;;;;;;;;;5012602;28;20185;-66
2022/01/16 03:16:31;;;;;;;0.60;0.60;;;;;;;;;;5013289;28;20201;-65
2022/01/16 03:21:54;;;;;;;0.60;0.60;;;;;;;;;;5012153;28;20181;-66
2022/01/16 03:24:21;;;;;;;0.60;0.60;;;;;;;;;;5011160;28;20201;-66
2022/01/16 03:26:47;;;;;;;0.50;0.50;;;;;;;;;;5012565;28;20224;-64
2022/01/16 03:29:14;;;;;;;0.60;0.60;;;;;;;;;;5012435;28;20526;-66
2022/01/16 03:31:39;;;;;;;0.60;0.60;;;;;;;;;;5012199;28;20169;-66
2022/01/16 03:34:05;;;;;;;0.60;0.60;;;;;;;;;;5012390;28;20226;-65
2022/01/16 03:36:31;;;;;;;0.50;0.50;;;;;;;;;;5011627;28;20416;-65
2022/01/16 03:38:57;;;;;;;0.70;0.70;;;;;;;;;;5011944;28;20417;-66
2022/01/16 03:41:27;;;;;;;0.60;0.60;;;;;;;;;;5012275;28;20272;-65
2022/01/16 03:43:53;;;;;;;0.60;0.60;;;;;;;;;;5011852;28;20475;-66
2022/01/16 03:46:19;;;;;;;0.60;0.60;;;;;;;;;;5012337;28;20177;-66
2022/01/16 03:48:45;;;;;;;0.60;0.60;;;;;;;;;;5012030;28;20645;-66
2022/01/16 03:51:11;;;;;;;0.60;0.60;;;;;;;;;;5011931;28;20871;-66
2022/01/16 03:53:37;;;;;;;0.60;0.60;;;;;;;;;;5011727;28;20795;-66
2022/01/16 03:56:03;;;;;;;0.65;0.65;;;;;;;;;;5012101;28;20955;-66
2022/01/16 03:58:29;;;;;;;0.50;0.50;;;;;;;;;;5011864;28;20181;-67
2022/01/16 04:00:55;;;;;;;0.67;0.67;;;;;;;;;;5011978;28;20178;-67
2022/01/16 04:03:21;;;;;;;0.70;0.70;;;;;;;;;;5011751;28;20452;-63
2022/01/16 04:05:47;;;;;;;0.60;0.60;;;;;;;;;;5012276;28;20404;-66
2022/01/16 04:08:13;;;;;;;0.70;0.70;;;;;;;;;;5012036;28;20178;-65
2022/01/16 04:10:39;;;;;;;0.70;0.70;;;;;;;;;;5012175;28;20186;-65
2022/01/16 04:13:05;;;;;;;0.70;0.70;;;;;;;;;;5010269;28;20535;-65
2022/01/16 04:15:31;;;;;;;0.70;0.70;;;;;;;;;;5010705;28;20792;-65
2022/01/16 04:17:58;;;;;;;0.50;0.50;;;;;;;;;;5010662;28;20177;-65
2022/01/16 04:20:24;;;;;;;0.60;0.60;;;;;;;;;;5010456;28;20416;-67
2022/01/16 04:22:50;;;;;;;0.60;0.60;;;;;;;;;;5011632;28;20673;-65
2022/01/16 04:25:18;;;;;;;0.60;0.60;;;;;;;;;;5011985;28;21037;-66
2022/01/16 04:27:44;;;;;;;0.60;0.60;;;;;;;;;;5012144;28;20479;-65
2022/01/16 04:30:10;;;;;;;0.63;0.63;;;;;;;;;;5011813;28;20181;-65
2022/01/16 04:32:36;;;;;;;0.60;0.60;;;;;;;;;;5011404;28;20592;-67
2022/01/16 04:35:02;;;;;;;0.60;0.60;;;;;;;;;;5011862;28;20181;-66
2022/01/16 04:37:28;;;;;;;0.50;0.50;;;;;;;;;;5011711;28;20212;-66
2022/01/16 04:39:59;;;;;;;0.67;0.67;;;;;;;;;;5011929;28;20209;-66
2022/01/16 04:45:10;;;;;;;0.70;0.70;;;;;;;;;;5011608;28;20292;-66
2022/01/16 04:47:36;;;;;;;0.70;0.70;;;;;;;;;;5011622;28;20177;-67
2022/01/16 04:50:02;;;;;;;0.60;0.60;;;;;;;;;;5014976;28;20174;-66
2022/01/16 04:52:28;;;;;;;0.60;0.60;;;;;;;;;;5015231;28;20660;-64
2022/01/16 04:54:54;;;;;;;0.60;0.60;;;;;;;;;;5015414;28;20455;-67
2022/01/16 04:57:20;;;;;;;0.60;0.60;;;;;;;;;;5013985;28;20843;-66
2022/01/16 04:59:45;;;;;;;0.60;0.60;;;;;;;;;;5015233;28;20416;-66
2022/01/16 05:02:11;;;;;;;0.60;0.60;;;;;;;;;;5015054;28;20201;-68
2022/01/16 05:04:38;;;;;;;0.60;0.60;;;;;;;;;;5015083;28;20467;-67
2022/01/16 05:07:04;;;;;;;0.60;0.60;;;;;;;;;;5016073;28;20407;-68
2022/01/16 05:09:30;;;;;;;0.60;0.60;;;;;;;;;;5014120;28;20173;-65
2022/01/16 05:11:58;;;;;;;0.70;0.70;;;;;;;;;;5015075;28;20699;-67
2022/01/16 05:17:09;;;;;;;0.60;0.60;;;;;;;;;;5015310;28;20188;-67
2022/01/16 05:19:34;;;;;;;0.70;0.70;;;;;;;;;;5015086;28;20556;-67
2022/01/16 05:22:00;;;;;;;0.60;0.60;;;;;;;;;;5014900;28;20204;-67
2022/01/16 05:24:31;;;;;;;0.60;0.60;;;;;;;;;;5013386;28;20233;-66
2022/01/16 05:26:57;;;;;;;0.70;0.70;;;;;;;;;;5014677;28;20401;-66
2022/01/16 05:29:23;;;;;;;0.60;0.60;;;;;;;;;;5015114;28;20267;-66
2022/01/16 05:31:49;;;;;;;0.70;0.70;;;;;;;;;;5014734;28;20201;-67
2022/01/16 05:34:19;;;;;;;0.70;0.70;;;;;;;;;;5014662;28;20760;-66
2022/01/16 05:36:45;;;;;;;0.60;0.60;;;;;;;;;;5014626;28;20182;-66
2022/01/16 05:39:11;;;;;;;0.70;0.70;;;;;;;;;;5014463;28;20303;-66
2022/01/16 05:41:37;;;;;;;0.50;0.50;;;;;;;;;;5014678;28;20213;-67
2022/01/16 05:44:03;;;;;;;0.60;0.60;;;;;;;;;;5014322;28;20209;-65
2022/01/16 05:46:29;;;;;;;0.70;0.70;;;;;;;;;;5014703;28;20182;-65
2022/01/16 05:48:55;;;;;;;0.60;0.60;;;;;;;;;;5014460;28;20170;-66
2022/01/16 05:51:21;;;;;;;0.70;0.70;;;;;;;;;;5014917;28;20170;-67
2022/01/16 05:53:50;;;;;;;0.60;0.60;;;;;;;;;;5014299;28;20792;-68
2022/01/16 05:56:16;;;;;;;0.60;0.60;;;;;;;;;;5014488;28;20173;-66
2022/01/16 05:58:42;;;;;;;0.60;0.60;;;;;;;;;;5014256;28;20188;-66
2022/01/16 06:01:08;;;;;;;0.70;0.70;;;;;;;;;;5013078;28;20409;-67
2022/01/16 06:03:34;;;;;;;0.70;0.70;;;;;;;;;;5013633;28;20257;-67
2022/01/16 06:06:00;;;;;;;0.70;0.70;;;;;;;;;;5013984;28;20642;-66
2022/01/16 06:08:26;;;;;;;0.60;0.60;;;;;;;;;;5013801;28;20918;-66
2022/01/16 06:10:52;;;;;;;0.60;0.60;;;;;;;;;;5014105;28;20180;-66
2022/01/16 06:13:18;;;;;;;0.70;0.70;;;;;;;;;;5013561;28;20936;-67
2022/01/16 06:15:46;;;;;;;0.60;0.60;;;;;;;;;;5014031;28;20412;-67
2022/01/16 06:18:12;;;;;;;0.70;0.70;;;;;;;;;;5013824;28;20409;-66
2022/01/16 06:20:40;;;;;;;0.70;0.70;;;;;;;;;;5014235;28;20177;-66
2022/01/16 06:23:06;;;;;;;0.60;0.60;;;;;;;;;;5012643;28;20193;-66
2022/01/16 06:25:32;;;;;;;0.63;0.63;;;;;;;;;;5013981;28;20291;-66
2022/01/16 06:27:58;;;;;;;0.60;0.60;;;;;;;;;;5014111;28;20419;-65
2022/01/16 06:30:24;;;;;;;0.70;0.70;;;;;;;;;;5014148;28;20440;-66
2022/01/16 06:32:50;;;;;;;0.70;0.70;;;;;;;;;;5013961;28;20268;-65
2022/01/16 06:35:16;;;;;;;0.70;0.70;;;;;;;;;;5014383;28;20413;-66
2022/01/16 06:37:43;;;;;;;0.60;0.60;;;;;;;;;;5013476;28;20276;-66
2022/01/16 06:40:09;;;;;;;0.70;0.70;;;;;;;;;;5014137;28;20435;-66
2022/01/16 06:42:37;;;;;;;0.80;0.80;;;;;;;;;;5013446;28;20628;-66
2022/01/16 06:45:04;;;;;;;0.65;0.65;;;;;;;;;;5013690;28;20213;-66
2022/01/16 06:47:30;;;;;;;0.60;0.60;;;;;;;;;;5013248;28;20177;-66
2022/01/16 06:49:56;;;;;;;0.60;0.60;;;;;;;;;;5013276;28;20176;-65
2022/01/16 06:52:22;;;;;;;0.70;0.70;;;;;;;;;;5013037;28;20197;-66
2022/01/16 06:54:48;;;;;;;0.60;0.60;;;;;;;;;;5012918;28;20448;-66
2022/01/16 06:57:14;;;;;;;0.70;0.70;;;;;;;;;;5013579;28;20435;-66
2022/01/16 06:59:40;;;;;;;0.70;0.70;;;;;;;;;;5013541;28;20796;-67
2022/01/16 07:02:06;;;;;;;0.70;0.70;;;;;;;;;;5013183;28;20467;-68
2022/01/16 07:04:33;;;;;;;0.70;0.70;;;;;;;;;;5011727;28;20221;-66
2022/01/16 07:06:59;;;;;;;0.60;0.60;;;;;;;;;;5013403;28;20180;-67
2022/01/16 07:09:25;;;;;;;0.70;0.70;;;;;;;;;;5013503;28;20177;-66
2022/01/16 07:11:51;;;;;;;0.60;0.60;;;;;;;;;;5011615;28;20492;-67
2022/01/16 07:14:16;;;;;;;0.60;0.60;;;;;;;;;;5012714;28;20632;-66
2022/01/16 07:16:42;;;;;;;0.60;0.60;;;;;;;;;;5013202;28;20776;-67
2022/01/16 07:19:09;;;;;;;0.60;0.60;;;;;;;;;;5012714;28;20413;-67
2022/01/16 07:21:35;;;;;;;0.70;0.70;;;;;;;;;;5012617;28;20420;-67
2022/01/16 07:24:01;;;;;;;0.80;0.80;;;;;;;;;;5012659;28;20232;-67
2022/01/16 07:26:27;;;;;;;0.60;0.60;;;;;;;;;;5013004;28;20442;-65
2022/01/16 07:28:52;;;;;;;0.70;0.70;;;;;;;;;;5012743;28;20430;-65
2022/01/16 07:31:18;;;;;;;0.80;0.80;;;;;;;;;;5012927;28;20472;-65
2022/01/16 07:33:45;;;;;;;0.60;0.60;;;;;;;;;;5041168;22;20513;-62
2022/01/16 07:36:10;;;;;;;0.60;0.60;;;;;;;;;;5031490;28;20205;-62
2022/01/16 07:38:36;;;;;;;0.70;0.70;;;;;;;;;;5030327;28;20204;-62
2022/01/16 07:41:03;;;;;;;0.70;0.70;;;;;;;;;;5031306;28;20415;-62
2022/01/16 07:43:29;;;;;;;0.60;0.60;;;;;;;;;;5029329;28;20193;-62
2022/01/16 07:45:55;;;;;;;0.70;0.70;;;;;;;;;;5029451;28;20249;-62
2022/01/16 07:48:21;;;;;;;0.70;0.70;;;;;;;;;;5028364;28;20859;-62
2022/01/16 07:50:47;;;;;;;0.60;0.60;;;;;;;;;;5029624;28;20891;-62
2022/01/16 07:53:13;;;;;;;0.60;0.60;;;;;;;;;;5029775;28;20431;-62
2022/01/16 07:55:39;;;;;;;0.60;0.60;;;;;;;;;;5031547;28;20188;-61
2022/01/16 07:58:05;;;;;;;0.60;0.60;;;;;;;;;;5030096;28;20422;-62
2022/01/16 08:00:32;;;;;;;0.70;0.70;;;;;;;;;;5031041;28;20180;-61
2022/01/16 08:02:58;;;;;;;0.63;0.63;;;;;;;;;;5030549;28;20434;-62
2022/01/16 08:05:24;;;;;;;0.70;0.70;;;;;;;;;;5031065;28;20200;-62
2022/01/16 08:07:50;;;;;;;0.65;0.65;;;;;;;;;;5029964;28;20407;-62
2022/01/16 08:10:16;;;;;;;0.60;0.60;;;;;;;;;;5031113;28;20172;-62
2022/01/16 08:12:42;;;;;;;0.60;0.60;;;;;;;;;;5030001;28;20470;-62
2022/01/16 08:15:08;;;;;;;0.60;0.60;;;;;;;;;;5030864;28;20581;-62
2022/01/16 08:17:36;;;;;;;0.70;0.70;;;;;;;;;;5031158;28;20486;-62
2022/01/16 08:20:02;;;;;;;0.60;0.60;;;;;;;;;;5030936;28;20777;-62
2022/01/16 08:22:28;;;;;;;0.60;0.60;;;;;;;;;;5030804;28;20202;-62
2022/01/16 08:24:54;;;;;;;0.70;0.70;;;;;;;;;;5034219;28;20357;-62
2022/01/16 08:27:20;;;;;;;0.60;0.60;;;;;;;;;;5034999;28;20410;-62
2022/01/16 08:29:46;;;;;;;0.70;0.70;;;;;;;;;;5033859;28;20783;-62
2022/01/16 08:32:12;;;;;;;0.60;0.60;;;;;;;;;;5034981;28;20435;-62
2022/01/16 08:34:38;;;;;;;0.70;0.70;;;;;;;;;;5034533;28;20177;-62
2022/01/16 08:37:04;;;;;;;0.70;0.70;;;;;;;;;;5035123;28;20415;-62
2022/01/16 08:39:30;;;;;;;0.60;0.60;;;;;;;;;;5035136;28;20196;-62
2022/01/16 08:41:56;;;;;;;0.70;0.70;;;;;;;;;;5034986;28;20181;-62
2022/01/16 08:44:22;;;;;;;0.70;0.70;;;;;;;;;;5033366;28;20231;-62
2022/01/16 08:46:48;;;;;;;0.60;0.60;;;;;;;;;;5033685;28;20172;-62
2022/01/16 08:49:14;;;;;;;0.70;0.70;;;;;;;;;;5034811;28;20172;-62
2022/01/16 08:51:41;;;;;;;0.70;0.70;;;;;;;;;;5034203;28;20180;-62
2022/01/16 08:54:07;;;;;;;0.60;0.60;;;;;;;;;;5033398;28;20258;-62
2022/01/16 08:56:33;;;;;;;0.60;0.60;;;;;;;;;;5034997;28;20177;-62
2022/01/16 08:58:59;;;;;;;0.73;0.73;;;;;;;;;;5034824;28;20177;-63
2022/01/16 09:01:25;;;;;;;0.70;0.70;;;;;;;;;;5034870;28;20180;-62
2022/01/16 09:03:51;;;;;;;0.60;0.60;;;;;;;;;;5034371;28;20454;-62
2022/01/16 09:06:17;;;;;;;0.67;0.67;;;;;;;;;;5034760;28;20410;-62
2022/01/16 09:08:43;;;;;;;0.60;0.60;;;;;;;;;;5034706;28;20494;-62
2022/01/16 09:11:09;;;;;;;0.70;0.70;;;;;;;;;;5034686;28;20227;-62
2022/01/16 09:13:37;;;;;;;0.70;0.70;;;;;;;;;;5034332;28;20219;-62
2022/01/16 09:16:03;;;;;;;0.60;0.60;;;;;;;;;;5034465;28;20952;-62
2022/01/16 09:18:29;;;;;;;0.50;0.50;;;;;;;;;;5034467;28;20172;-62
2022/01/16 09:20:56;;;;;;;0.70;0.70;;;;;;;;;;5034322;28;20223;-62
2022/01/16 09:23:22;;;;;;;0.60;0.60;;;;;;;;;;5033811;28;20181;-62
2022/01/16 09:25:48;;;;;;;0.65;0.65;;;;;;;;;;5034277;28;20295;-63
2022/01/16 09:28:14;;;;;;;0.60;0.60;;;;;;;;;;5032952;28;20230;-62
2022/01/16 09:30:42;;;;;;;0.60;0.60;;;;;;;;;;5033478;28;20412;-62
2022/01/16 09:33:08;;;;;;;0.60;0.60;;;;;;;;;;5033778;28;20504;-63
2022/01/16 09:35:34;;;;;;;0.60;0.60;;;;;;;;;;5034202;28;20264;-63
2022/01/16 09:38:00;;;;;;;0.60;0.60;;;;;;;;;;5034150;28;20666;-63
2022/01/16 09:40:26;;;;;;;0.70;0.70;;;;;;;;;;5034449;28;20408;-63
2022/01/16 09:42:53;;;;;;;0.60;0.60;;;;;;;;;;5033663;28;20197;-62
2022/01/16 09:45:19;;;;;;;0.60;0.60;;;;;;;;;;5033541;28;20200;-63
2022/01/16 09:47:46;;;;;;;0.70;0.70;;;;;;;;;;5031994;28;20177;-62
2022/01/16 09:50:13;;;;;;;0.70;0.70;;;;;;;;;;5033288;28;20200;-63
2022/01/16 09:52:40;;;;;;;0.50;0.50;;;;;;;;;;5032363;28;20192;-63
2022/01/16 09:55:07;;;;;;;0.57;0.57;;;;;;;;;;5032062;28;20231;-62
2022/01/16 09:57:33;;;;;;;0.60;0.60;;;;;;;;;;5033577;28;20181;-62
2022/01/16 09:59:59;;;;;;;0.70;0.70;;;;;;;;;;5033590;28;20510;-63
2022/01/16 10:02:25;;;;;;;0.80;0.80;;;;;;;;;;5033172;28;20212;-62
2022/01/16 10:04:53;;;;;;;0.50;0.50;;;;;;;;;;5032787;28;20259;-63
2022/01/16 10:07:19;;;;;;;0.70;0.70;;;;;;;;;;5033371;28;20169;-63
2022/01/16 10:10:03;;;;;;;0.70;0.70;;;;;;;;;;5032830;28;20181;-63
2022/01/16 10:12:30;;;;;;;0.60;0.60;;;;;;;;;;5033108;28;20755;-62
2022/01/16 10:14:56;;;;;;;0.60;0.60;;;;;;;;;;5031105;28;20636;-63
2022/01/16 10:17:25;;;;;;;0.60;0.60;;;;;;;;;;5034626;28;20189;-60
2022/01/16 10:20:05;;;;;;;0.60;0.60;;;;;;;;;;5033099;28;20179;-63
2022/01/16 10:22:45;;;;;;;0.55;0.55;;;;;;;;;;5031640;28;20634;-63
2022/01/16 10:25:12;;;;;;;0.68;0.68;;;;;;;;;;5033052;28;20204;-63
2022/01/16 10:27:39;;;;;;;0.60;0.60;;;;;;;;;;5033056;28;20182;-62
2022/01/16 10:30:09;;;;;;;0.60;0.60;;;;;;;;;;5032634;28;20186;-63
2022/01/16 10:32:38;;;;;;;0.60;0.60;;;;;;;;;;5032449;28;20571;-63
2022/01/16 10:35:12;;;;;;;0.60;0.60;;;;;;;;;;5031853;28;20193;-63
2022/01/16 10:37:40;;;;;;;0.60;0.60;;;;;;;;;;5028602;28;20180;-63
2022/01/16 10:40:11;;;;;;;0.50;0.50;;;;;;;;;;5032351;28;20256;-63
2022/01/16 10:42:39;;;;;;;3.28;3.08;;;;;;;;;;5031707;28;20252;-63
2022/01/16 10:45:05;;;;;;;4.57;4.28;;;;;;;;;;5019273;28;20304;-62
2022/01/16 10:47:41;;;;;;;1.80;1.70;;;;;;;;;;5012237;28;20648;-63
2022/01/16 10:50:18;;;;;;;1.42;1.42;;;;;;;;;;5030056;28;20186;-63
2022/01/16 10:52:47;;;;;;;1.98;1.88;;;;;;;;;;5032370;28;20198;-63
2022/01/16 10:55:12;;;;;;;1.48;1.45;;;;;;;;;;5023956;28;20184;-63
2022/01/16 10:57:39;;;;;;;2.07;1.97;;;;;;;;;;5012910;28;20318;-63
2022/01/16 11:00:08;;;;;;;1.77;1.73;;;;;;;;;;5015091;28;20410;-63
2022/01/16 11:02:34;;;;;;;1.48;1.48;;;;;;;;;;5031773;28;20199;-62
2022/01/16 11:05:16;;;;;;;0.90;0.90;;;;;;;;;;5032417;28;20675;-62
2022/01/16 11:07:43;;;;;;;1.70;1.70;;;;;;;;;;5015825;28;20418;-63
2022/01/16 11:10:20;;;;;;;1.30;1.30;;;;;;;;;;5012229;28;20182;-63
2022/01/16 11:12:47;;;;;;;2.15;2.05;;;;;;;;;;5010545;28;20194;-63
2022/01/16 11:15:13;;;;;;;1.40;1.40;;;;;;;;;;5013909;28;20180;-63
2022/01/16 11:17:38;;;;;;;1.40;1.40;;;;;;;;;;5031768;28;20670;-63
2022/01/16 11:20:06;;;;;;;1.40;1.40;;;;;;;;;;5018095;28;20909;-62
2022/01/16 11:22:45;;;;;;;2.28;2.17;;;;;;;;;;5011682;28;20432;-62
2022/01/16 11:25:11;;;;;;;1.80;1.80;;;;;;;;;;5011885;28;20694;-62
2022/01/16 11:27:38;;;;;;;1.48;1.48;;;;;;;;;;5011931;28;20181;-62
2022/01/16 11:30:04;;;;;;;1.50;1.50;;;;;;;;;;5011749;28;20609;-62
2022/01/16 11:32:30;;;;;;;3.15;3.00;;;;;;;;;;5011441;28;20202;-62
2022/01/16 11:34:57;;;;;;;1.80;1.80;;;;;;;;;;5011503;28;20185;-63
2022/01/16 11:37:23;;;;;;;1.70;1.67;;;;;;;;;;5011818;28;20189;-62
2022/01/16 11:39:49;;;;;;;2.50;2.40;;;;;;;;;;5011806;28;20655;-62
2022/01/16 11:42:22;;;;;;;1.60;1.60;;;;;;;;;;5011272;28;20269;-63
2022/01/16 11:44:52;;;;;;;1.38;1.38;;;;;;;;;;5027123;28;20463;-62
2022/01/16 11:47:18;;;;;;;1.25;1.25;;;;;;;;;;5031434;28;20173;-62
2022/01/16 11:49:44;;;;;;;1.10;1.10;;;;;;;;;;5031361;28;20237;-62
2022/01/16 11:52:12;;;;;;;1.27;1.27;;;;;;;;;;5031481;28;20415;-62
2022/01/16 11:54:39;;;;;;;1.30;1.30;;;;;;;;;;5030983;28;20182;-62
2022/01/16 11:57:08;;;;;;;1.10;1.10;;;;;;;;;;5013101;28;20558;-62
2022/01/16 11:59:34;;;;;;;0.98;0.98;;;;;;;;;;5023894;28;20195;-62
2022/01/16 12:02:01;;;;;;;1.10;1.10;;;;;;;;;;5030393;28;20167;-62
2022/01/16 12:04:30;;;;;;;1.10;1.10;;;;;;;;;;5029234;28;20229;-62
2022/01/16 12:07:01;;;;;;;0.60;0.60;;;;;;;;;;5011574;28;20253;-62
2022/01/16 12:12:13;;;;;;;0.80;0.80;;;;;;;;;;5030006;28;20170;-62
2022/01/16 12:14:48;;;;;;;1.00;1.00;;;;;;;;;;5030186;28;20178;-62
2022/01/16 12:17:35;;;;;;;0.70;0.70;;;;;;;;;;5030659;28;20186;-62
2022/01/16 12:20:10;;;;;;;0.80;0.80;;;;;;;;;;5030421;28;20236;-61
2022/01/16 12:22:41;;;;;;;0.70;0.70;;;;;;;;;;5030756;28;20193;-62
2022/01/16 12:25:08;;;;;;;0.60;0.60;;;;;;;;;;5031195;28;20251;-62
2022/01/16 12:27:37;;;;;;;0.70;0.70;;;;;;;;;;5031223;28;20174;-62
2022/01/16 12:30:23;;;;;;;0.80;0.80;;;;;;;;;;5031050;28;20315;-62
2022/01/16 12:32:52;;;;;;;0.70;0.70;;;;;;;;;;5028760;28;20299;-61
2022/01/16 12:35:37;;;;;;;0.70;0.70;;;;;;;;;;5031125;28;20177;-62
2022/01/16 12:38:10;;;;;;;0.70;0.70;;;;;;;;;;5031214;28;20178;-62
2022/01/16 12:40:38;;;;;;;0.70;0.70;;;;;;;;;;5030904;28;20177;-62
2022/01/16 12:43:08;;;;;;;0.80;0.80;;;;;;;;;;5031070;28;20189;-61
2022/01/16 12:45:37;;;;;;;0.77;0.77;;;;;;;;;;5031244;28;20238;-62
2022/01/16 12:48:04;;;;;;;1.05;1.05;;;;;;;;;;5031051;28;20170;-62
2022/01/16 12:50:30;;;;;;;0.90;0.90;;;;;;;;;;5031079;28;20176;-62
2022/01/16 12:52:56;;;;;;;0.70;0.70;;;;;;;;;;5031007;28;20247;-61
2022/01/16 12:55:28;;;;;;;0.80;0.80;;;;;;;;;;5030963;28;20407;-62
2022/01/16 12:57:54;;;;;;;0.60;0.60;;;;;;;;;;5030429;28;20987;-62
2022/01/16 13:00:20;;;;;;;0.70;0.70;;;;;;;;;;5031059;28;20268;-60
2022/01/16 13:02:53;;;;;;;0.73;0.73;;;;;;;;;;5029505;28;21062;-62
2022/01/16 13:05:20;;;;;;;0.90;0.90;;;;;;;;;;5030813;28;20208;-62
2022/01/16 13:07:46;;;;;;;0.77;0.77;;;;;;;;;;5030930;28;20544;-62
2022/01/16 13:10:13;;;;;;;0.68;0.68;;;;;;;;;;5032789;28;20252;-62
2022/01/16 13:12:38;;;;;;;0.77;0.77;;;;;;;;;;5034651;28;20192;-62
2022/01/16 13:15:05;;;;;;;0.70;0.70;;;;;;;;;;5034670;28;20187;-62
2022/01/16 13:17:34;;;;;;;0.70;0.70;;;;;;;;;;5034394;28;20506;-62
2022/01/16 13:20:02;;;;;;;0.60;0.60;;;;;;;;;;5034585;28;20201;-62
2022/01/16 13:22:30;;;;;;;0.70;0.70;;;;;;;;;;5032946;28;20193;-62
2022/01/16 13:24:58;;;;;;;0.80;0.80;;;;;;;;;;5034288;28;20244;-62
2022/01/16 13:27:25;;;;;;;0.70;0.70;;;;;;;;;;5034175;28;20653;-62
2022/01/16 13:30:01;;;;;;;0.70;0.70;;;;;;;;;;5034068;28;20169;-62
2022/01/16 13:34:55;;;;;;;0.73;0.73;;;;;;;;;;5011910;22;20328;-65
2022/01/16 13:37:22;;;;;;;0.70;0.70;;;;;;;;;;4996010;28;20205;-65
2022/01/16 13:39:50;;;;;;;0.60;0.60;;;;;;;;;;4996367;28;20182;-65
2022/01/16 13:42:17;;;;;;;0.68;0.68;;;;;;;;;;4996092;28;20187;-64
2022/01/16 13:44:43;;;;;;;0.73;0.73;;;;;;;;;;4993757;28;20696;-65
2022/01/16 13:47:09;;;;;;;0.75;0.75;;;;;;;;;;4995224;28;20183;-65
2022/01/16 13:49:43;;;;;;;0.70;0.70;;;;;;;;;;4994139;28;20178;-65
2022/01/16 13:52:10;;;;;;;0.70;0.70;;;;;;;;;;4995157;28;20832;-65
2022/01/16 13:54:35;;;;;;;0.68;0.68;;;;;;;;;;4994543;28;20202;-65
2022/01/16 13:57:01;;;;;;;0.60;0.60;;;;;;;;;;4995424;28;20176;-65
2022/01/16 13:59:28;;;;;;;0.60;0.60;;;;;;;;;;4995083;28;20416;-65
2022/01/16 14:01:55;;;;;;;0.80;0.80;;;;;;;;;;4994588;28;20569;-65
2022/01/16 14:04:21;;;;;;;0.80;0.80;;;;;;;;;;4994223;28;20290;-65
2022/01/16 14:06:52;;;;;;;0.60;0.60;;;;;;;;;;4994472;28;20176;-65
2022/01/16 14:09:18;;;;;;;0.80;0.80;;;;;;;;;;4994449;28;20179;-65
2022/01/16 14:11:45;;;;;;;0.80;0.80;;;;;;;;;;4994484;28;20195;-65
2022/01/16 14:14:12;;;;;;;0.73;0.73;;;;;;;;;;4994570;28;20302;-65
2022/01/16 14:19:27;;;;;;;0.80;0.80;;;;;;;;;;4994404;28;20229;-64
2022/01/16 14:22:07;;;;;;;0.80;0.80;;;;;;;;;;4993460;28;20178;-65
2022/01/16 14:24:36;;;;;;;0.80;0.80;;;;;;;;;;4993739;28;20234;-66
2022/01/16 14:27:07;;;;;;;0.80;0.80;;;;;;;;;;4994043;28;20171;-65
2022/01/16 14:29:33;;;;;;;0.63;0.63;;;;;;;;;;4994139;28;20226;-64
2022/01/16 14:31:59;;;;;;;0.80;0.80;;;;;;;;;;4992910;28;20368;-65
2022/01/16 14:34:26;;;;;;;0.90;0.90;;;;;;;;;;4993775;28;20224;-65
2022/01/16 14:36:52;;;;;;;0.80;0.80;;;;;;;;;;4994214;28;20267;-65
2022/01/16 14:39:18;;;;;;;0.80;0.80;;;;;;;;;;4993715;28;20252;-65
2022/01/16 14:41:48;;;;;;;0.70;0.70;;;;;;;;;;4993977;28;20225;-66
2022/01/16 14:44:14;;;;;;;0.70;0.70;;;;;;;;;;4993924;28;20217;-66
2022/01/16 14:46:41;;;;;;;0.75;0.75;;;;;;;;;;4993760;28;20175;-66
2022/01/16 14:49:07;;;;;;;0.70;0.70;;;;;;;;;;4993160;28;20249;-66
2022/01/16 14:51:33;;;;;;;0.80;0.80;;;;;;;;;;4991355;28;20182;-66
2022/01/16 14:53:59;;;;;;;0.80;0.80;;;;;;;;;;4993247;28;20233;-65
2022/01/16 14:56:25;;;;;;;0.70;0.70;;;;;;;;;;4993708;28;20624;-65
2022/01/16 14:58:51;;;;;;;0.70;0.70;;;;;;;;;;4993760;28;20174;-64
2022/01/16 15:01:17;;;;;;;0.70;0.70;;;;;;;;;;4993514;28;20441;-65
2022/01/16 15:03:43;;;;;;;0.90;0.90;;;;;;;;;;4992619;28;20932;-65
2022/01/16 15:06:10;;;;;;;0.70;0.70;;;;;;;;;;4993310;28;20782;-66
2022/01/16 15:08:37;;;;;;;0.80;0.80;;;;;;;;;;4993348;28;20173;-64
2022/01/16 15:11:03;;;;;;;0.80;0.80;;;;;;;;;;4993495;28;20183;-65
2022/01/16 15:13:29;;;;;;;0.80;0.80;;;;;;;;;;4992909;28;20561;-65
2022/01/16 15:15:55;;;;;;;0.80;0.80;;;;;;;;;;4992994;28;20182;-64
2022/01/16 15:18:21;;;;;;;0.80;0.80;;;;;;;;;;4994238;28;20444;-65
2022/01/16 15:20:49;;;;;;;0.70;0.70;;;;;;;;;;4993288;28;20789;-65
2022/01/16 15:23:15;;;;;;;0.63;0.63;;;;;;;;;;4992833;28;20205;-66
2022/01/16 15:25:41;;;;;;;0.60;0.60;;;;;;;;;;4993193;28;20226;-65
2022/01/16 15:28:07;;;;;;;0.63;0.63;;;;;;;;;;5011647;28;20450;-65
2022/01/16 15:30:33;;;;;;;0.70;0.70;;;;;;;;;;4994953;28;20226;-65
2022/01/16 15:32:58;;;;;;;0.70;0.70;;;;;;;;;;4992855;28;20532;-65